Time;durP1;ratioP1;P1;durP2;ratioP2;P2;SDS_P1;SDS_P2;PMS_P1;PMS_P2;Temp;Humidity;BMP_temperature;BMP_pressure;BME280_temperature;BME280_humidity;BME280_pressure;Samples;Min_cycle;Max_cycle;Signal;HPM_P1;HPM_P2
2023/08/16 00:00:00;;;;;;;14.43;6.40;;;;;;;23.75;69.01;101046.06;2056572;28;20043;-72
2023/08/16 00:01:05;;;;;;;10.25;5.63;;;;;;;23.77;68.88;101045.69;2064625;28;20038;-71
2023/08/16 00:02:07;;;;;;;13.98;5.50;;;;;;;23.76;68.94;101042.16;2064300;28;20110;-72
2023/08/16 00:03:08;;;;;;;11.60;5.53;;;;;;;23.76;68.82;101044.09;2042127;28;20799;-72
2023/08/16 00:04:12;;;;;;;10.18;5.30;;;;;;;23.76;68.98;101047.63;2040751;28;20071;-72
2023/08/16 00:05:14;;;;;;;8.70;5.47;;;;;;;23.77;68.85;101049.25;2050487;28;21047;-73
2023/08/16 00:06:22;;;;;;;13.23;6.20;;;;;;;23.76;68.86;101047.63;2058046;28;20974;-73
2023/08/16 00:07:24;;;;;;;14.13;6.30;;;;;;;23.77;69.19;101045.69;2074412;28;20027;-71
2023/08/16 00:08:29;;;;;;;17.90;6.30;;;;;;;23.77;69.20;101052.00;2058405;28;20026;-72
2023/08/16 00:09:32;;;;;;;17.85;6.20;;;;;;;23.78;69.28;101053.56;2043059;28;20150;-73
2023/08/16 00:10:36;;;;;;;16.65;6.78;;;;;;;23.78;69.34;101045.34;2026723;29;20049;-72
2023/08/16 00:11:40;;;;;;;14.40;5.90;;;;;;;23.78;69.38;101045.34;2028024;28;20139;-73
2023/08/16 00:12:43;;;;;;;17.50;6.75;;;;;;;23.78;69.49;101050.84;2050628;28;20059;-72
2023/08/16 00:13:45;;;;;;;12.50;5.90;;;;;;;23.77;69.49;101052.00;2058133;28;20036;-72
2023/08/16 00:14:50;;;;;;;14.48;6.40;;;;;;;23.77;69.49;101049.25;2050188;28;20043;-72
2023/08/16 00:15:53;;;;;;;13.52;5.97;;;;;;;23.77;69.52;101049.25;2057516;28;20035;-72
2023/08/16 00:16:57;;;;;;;12.65;6.60;;;;;;;23.77;69.49;101048.44;2057411;28;20829;-72
2023/08/16 00:18:01;;;;;;;11.50;6.15;;;;;;;23.78;69.45;101050.84;2050552;28;20091;-72
2023/08/16 00:19:04;;;;;;;11.02;5.75;;;;;;;23.78;69.27;101048.09;2057900;28;20925;-72
2023/08/16 00:20:10;;;;;;;11.15;5.45;;;;;;;23.78;69.36;101041.81;2042119;28;20048;-71
2023/08/16 00:21:12;;;;;;;11.30;5.80;;;;;;;23.76;69.28;101046.84;2042879;28;20143;-71
2023/08/16 00:22:13;;;;;;;11.50;5.30;;;;;;;23.78;69.28;101048.09;2050375;28;20040;-72
2023/08/16 00:23:15;;;;;;;13.60;5.93;;;;;;;23.76;69.44;101046.84;2057896;28;20039;-72
2023/08/16 00:24:18;;;;;;;20.50;6.13;;;;;;;23.77;69.20;101054.75;2059778;28;20961;-73
2023/08/16 00:25:20;;;;;;;15.18;6.05;;;;;;;23.75;68.99;101054.28;2063130;28;20035;-73
2023/08/16 00:26:24;;;;;;;17.02;5.97;;;;;;;23.74;68.98;101055.44;2038100;28;20040;-72
2023/08/16 00:27:26;;;;;;;16.23;6.95;;;;;;;23.73;69.14;101047.56;2058255;28;20028;-72
2023/08/16 00:28:28;;;;;;;18.63;5.72;;;;;;;23.74;69.07;101052.72;2066823;28;20060;-71
2023/08/16 00:29:34;;;;;;;11.85;5.90;;;;;;;23.73;69.25;101042.84;2059335;28;20038;-70
2023/08/16 00:30:36;;;;;;;11.02;5.45;;;;;;;23.72;69.02;101046.75;2041404;28;20178;-74
2023/08/16 00:31:39;;;;;;;15.20;5.80;;;;;;;23.73;69.05;101053.03;2041996;28;21051;-72
2023/08/16 00:32:43;;;;;;;8.25;5.68;;;;;;;23.70;69.13;101049.06;2057897;28;20051;-71
2023/08/16 00:33:47;;;;;;;13.00;6.07;;;;;;;23.69;69.17;101052.97;2048040;28;20047;-72
2023/08/16 00:34:51;;;;;;;9.57;5.65;;;;;;;23.68;69.20;101051.34;2053494;28;21015;-71
2023/08/16 00:35:56;;;;;;;8.20;5.45;;;;;;;23.68;69.28;101051.34;2062435;28;20042;-72
2023/08/16 00:36:58;;;;;;;9.77;5.65;;;;;;;23.68;69.45;101054.09;2049048;28;20146;-71
2023/08/16 00:38:06;;;;;;;9.70;6.38;;;;;;;23.67;69.15;101057.19;2057412;28;20035;-73
2023/08/16 00:39:07;;;;;;;12.13;5.45;;;;;;;23.65;69.28;101062.25;2065761;28;20960;-72
2023/08/16 00:40:11;;;;;;;9.60;5.10;;;;;;;23.62;69.18;101051.97;2065556;28;20118;-72
2023/08/16 00:41:13;;;;;;;10.43;5.45;;;;;;;23.62;69.30;101057.47;2065593;28;20070;-72
2023/08/16 00:42:17;;;;;;;11.45;4.97;;;;;;;23.63;69.46;101059.84;2048604;28;20039;-72
2023/08/16 00:43:19;;;;;;;9.82;5.30;;;;;;;23.63;69.61;101059.84;2050126;28;20034;-72
2023/08/16 00:44:21;;;;;;;9.65;5.53;;;;;;;23.60;69.43;101064.09;2048432;28;20047;-72
2023/08/16 00:45:23;;;;;;;13.35;5.75;;;;;;;23.58;69.49;101060.09;2041933;28;20037;-73
2023/08/16 00:46:24;;;;;;;15.57;5.88;;;;;;;23.60;69.53;101058.59;2057016;28;20881;-72
2023/08/16 00:47:26;;;;;;;9.55;5.65;;;;;;;23.59;69.70;101059.75;2065357;28;20041;-72
2023/08/16 00:48:31;;;;;;;14.73;5.85;;;;;;;23.58;69.59;101051.88;2051188;28;20036;-71
2023/08/16 00:49:39;;;;;;;6.63;5.18;;;;;;;23.58;69.60;101062.84;2050231;28;20210;-71
2023/08/16 00:50:43;;;;;;;11.02;5.22;;;;;;;23.56;69.54;101060.47;2069467;28;20241;-71
2023/08/16 00:51:46;;;;;;;11.32;5.28;;;;;;;23.57;69.55;101058.50;2064164;28;20035;-71
2023/08/16 00:52:48;;;;;;;11.52;5.40;;;;;;;23.57;69.88;101059.31;2046861;28;20891;-72
2023/08/16 00:53:50;;;;;;;12.57;6.40;;;;;;;23.55;69.69;101058.09;2040777;28;20044;-71
2023/08/16 00:54:52;;;;;;;11.48;5.82;;;;;;;23.55;69.67;101061.63;2057614;28;20025;-71
2023/08/16 00:55:56;;;;;;;9.20;5.70;;;;;;;23.56;69.85;101059.69;2060373;28;21286;-71
2023/08/16 00:57:01;;;;;;;9.25;5.47;;;;;;;23.55;69.78;101058.88;2030275;28;20158;-71
2023/08/16 00:58:05;;;;;;;7.15;5.00;;;;;;;23.54;69.80;101061.97;2049550;28;20071;-71
2023/08/16 00:59:07;;;;;;;9.23;5.05;;;;;;;23.54;69.64;101056.47;2071628;28;20027;-72
2023/08/16 01:00:10;;;;;;;9.75;4.93;;;;;;;23.52;69.46;101058.81;2058955;28;20058;-72
2023/08/16 01:01:14;;;;;;;12.38;5.30;;;;;;;23.53;69.47;101058.44;2047284;28;20039;-71
2023/08/16 01:02:19;;;;;;;7.80;5.18;;;;;;;23.52;69.52;101062.34;2048462;28;20935;-72
2023/08/16 01:03:23;;;;;;;7.28;5.00;;;;;;;23.53;69.63;101054.91;2050345;28;20850;-72
2023/08/16 01:04:24;;;;;;;9.00;5.05;;;;;;;23.52;69.59;101047.81;2040281;28;20779;-72
2023/08/16 01:05:29;;;;;;;7.55;4.72;;;;;;;23.51;69.51;101046.22;2049807;28;20032;-71
2023/08/16 01:06:31;;;;;;;7.97;5.32;;;;;;;23.50;69.51;101050.13;2064707;28;20027;-72
2023/08/16 01:07:35;;;;;;;7.68;5.30;;;;;;;23.50;69.57;101052.84;2049331;28;20047;-71
2023/08/16 01:08:37;;;;;;;8.52;4.97;;;;;;;23.49;69.59;101056.75;2057887;28;20024;-72
2023/08/16 01:09:41;;;;;;;10.00;4.80;;;;;;;23.47;69.83;101048.88;2065332;28;20039;-72
2023/08/16 01:11:01;;;;;;;7.68;5.00;;;;;;;23.44;69.78;101052.31;2049989;28;20050;-72
2023/08/16 01:12:14;;;;;;;;;;;;;;;23.43;69.90;101052.69;2047783;28;20783;-74
2023/08/16 01:14:01;;;;;;;9.18;5.68;;;;;;;23.43;69.81;101050.72;2052341;28;20822;-72
2023/08/16 01:15:05;;;;;;;10.18;5.13;;;;;;;23.41;69.83;101052.22;2054850;28;20145;-71
2023/08/16 01:16:10;;;;;;;9.43;5.78;;;;;;;23.38;69.74;101055.69;2057132;28;20039;-72
2023/08/16 01:17:13;;;;;;;9.15;5.20;;;;;;;23.36;69.85;101061.53;2057324;28;20039;-71
2023/08/16 01:18:20;;;;;;;6.85;5.38;;;;;;;23.36;70.19;101059.59;2057898;28;20031;-73
2023/08/16 01:19:28;;;;;;;10.02;5.70;;;;;;;23.36;70.13;101065.06;2049687;28;20031;-71
2023/08/16 01:20:32;;;;;;;9.07;4.97;;;;;;;23.36;70.26;101069.78;2049839;28;20843;-70
2023/08/16 01:21:42;;;;;;;11.38;5.85;;;;;;;23.35;70.37;101066.19;2057284;28;20035;-71
2023/08/16 01:23:02;;;;;;;12.10;5.50;;;;;;;23.37;70.49;101074.09;2058200;28;20066;-71
2023/08/16 01:24:16;;;;;;;9.63;4.85;;;;;;;23.36;70.13;101073.31;2058044;28;20910;-73
2023/08/16 01:25:23;;;;;;;6.35;5.00;;;;;;;23.38;70.21;101074.88;2052023;28;20035;-73
2023/08/16 01:26:32;;;;;;;9.07;5.10;;;;;;;23.36;70.21;101073.31;2046602;28;20172;-72
2023/08/16 01:27:33;;;;;;;7.60;4.95;;;;;;;23.36;70.11;101073.31;2049643;28;20142;-71
2023/08/16 01:28:38;;;;;;;7.28;4.65;;;;;;;23.39;70.17;101076.47;2049676;28;20209;-71
2023/08/16 01:29:40;;;;;;;6.43;4.95;;;;;;;23.36;70.01;101069.78;2059066;28;20031;-72
2023/08/16 01:30:45;;;;;;;6.53;4.90;;;;;;;23.39;70.07;101077.28;2050786;28;20079;-72
2023/08/16 01:31:47;;;;;;;7.18;4.53;;;;;;;23.40;69.92;101075.34;2039151;28;20024;-73
2023/08/16 01:32:49;;;;;;;6.57;4.45;;;;;;;23.40;69.94;101078.09;2027715;28;20041;-73
2023/08/16 01:33:53;;;;;;;5.13;3.97;;;;;;;23.39;70.19;101076.47;2042230;28;20035;-73
2023/08/16 01:34:55;;;;;;;5.53;4.22;;;;;;;23.39;69.76;101079.22;2046628;28;20028;-74
2023/08/16 01:35:58;;;;;;;5.80;4.47;;;;;;;23.39;69.82;101073.72;2042386;28;20036;-72
2023/08/16 01:37:06;;;;;;;9.05;4.53;;;;;;;23.40;69.67;101078.09;2056894;28;20038;-73
2023/08/16 01:38:12;;;;;;;7.32;4.70;;;;;;;23.40;69.85;101075.34;2065720;28;21080;-73
2023/08/16 01:39:17;;;;;;;5.68;4.20;;;;;;;23.40;69.86;101078.09;2062038;28;20857;-72
2023/08/16 01:40:19;;;;;;;5.80;3.92;;;;;;;23.39;69.48;101071.78;2049595;28;20044;-72
2023/08/16 01:41:38;;;;;;;4.60;3.70;;;;;;;23.39;69.42;101076.47;2046321;28;20039;-73
2023/08/16 01:42:46;;;;;;;7.68;4.30;;;;;;;23.38;69.33;101077.63;2060750;28;20023;-73
2023/08/16 01:43:48;;;;;;;5.63;3.83;;;;;;;23.39;69.27;101084.72;2057504;28;20112;-73
2023/08/16 01:44:52;;;;;;;5.45;4.10;;;;;;;23.40;69.24;101078.09;2057964;28;20080;-72
2023/08/16 01:45:54;;;;;;;5.95;4.20;;;;;;;23.39;69.19;101081.97;2049558;28;20043;-72
2023/08/16 01:46:56;;;;;;;6.38;3.83;;;;;;;23.40;69.06;101086.31;2049505;28;21066;-72
2023/08/16 01:47:58;;;;;;;4.30;3.78;;;;;;;23.39;69.09;101084.72;2049440;28;20082;-72
2023/08/16 01:49:00;;;;;;;5.03;3.70;;;;;;;23.40;69.17;101089.06;2049812;28;20020;-72
2023/08/16 01:50:03;;;;;;;5.30;3.80;;;;;;;23.40;69.20;101086.31;2049762;28;20039;-72
2023/08/16 01:51:06;;;;;;;7.60;4.18;;;;;;;23.40;69.11;101086.31;2058020;28;20039;-72
2023/08/16 01:52:10;;;;;;;5.25;3.60;;;;;;;23.35;68.98;101082.66;2065275;28;20129;-72
2023/08/16 01:53:11;;;;;;;7.60;3.90;;;;;;;23.36;69.22;101088.97;2057505;28;20026;-73
2023/08/16 01:54:13;;;;;;;7.00;4.35;;;;;;;23.35;69.10;101093.66;2041687;29;20050;-73
2023/08/16 01:55:16;;;;;;;4.90;3.63;;;;;;;23.34;69.24;101097.53;2026450;29;20108;-72
2023/08/16 01:56:17;;;;;;;7.30;4.00;;;;;;;23.31;69.40;101095.50;2042291;28;20958;-72
2023/08/16 01:57:19;;;;;;;5.20;3.97;;;;;;;23.28;69.53;101096.22;2057567;28;20047;-73
2023/08/16 01:58:21;;;;;;;6.25;4.30;;;;;;;23.25;69.34;101096.91;2049789;28;20079;-72
2023/08/16 01:59:23;;;;;;;5.05;4.13;;;;;;;23.23;69.75;101096.47;2049527;28;20901;-72
2023/08/16 02:00:26;;;;;;;7.18;4.72;;;;;;;23.15;69.73;101105.66;2057664;28;20114;-72
2023/08/16 02:01:28;;;;;;;6.72;4.53;;;;;;;23.05;69.98;101095.19;2057541;28;20039;-73
2023/08/16 02:02:32;;;;;;;7.47;4.95;;;;;;;23.03;70.27;101102.97;2049897;28;20028;-73
2023/08/16 02:03:36;;;;;;;5.82;4.80;;;;;;;22.99;70.47;101100.13;2050898;28;20139;-74
2023/08/16 02:04:38;;;;;;;9.07;5.15;;;;;;;22.94;70.69;101094.09;2049553;28;20036;-72
2023/08/16 02:05:42;;;;;;;7.25;4.80;;;;;;;22.93;70.93;101097.97;2049972;28;20131;-72
2023/08/16 02:06:47;;;;;;;6.13;4.68;;;;;;;22.95;71.20;101095.69;2057851;28;20942;-72
2023/08/16 02:07:52;;;;;;;6.95;4.60;;;;;;;22.96;71.29;101091.81;2050574;28;20887;-73
2023/08/16 02:08:55;;;;;;;6.80;5.07;;;;;;;22.98;71.33;101094.97;2058022;28;20113;-72
2023/08/16 02:09:56;;;;;;;6.93;5.40;;;;;;;22.99;71.36;101091.13;2057760;28;20035;-72
2023/08/16 02:10:58;;;;;;;7.65;5.95;;;;;;;22.99;71.33;101085.63;2049761;28;20063;-72
2023/08/16 02:12:02;;;;;;;10.50;5.10;;;;;;;23.01;71.40;101077.84;2050211;28;20047;-73
2023/08/16 02:13:07;;;;;;;5.93;4.63;;;;;;;23.03;71.48;101081.81;2049761;28;20122;-73
2023/08/16 02:14:11;;;;;;;6.50;5.40;;;;;;;23.06;71.47;101078.38;2050564;28;20024;-72
2023/08/16 02:15:14;;;;;;;12.75;5.15;;;;;;;23.06;71.40;101077.59;2041817;28;20176;-72
2023/08/16 02:16:17;;;;;;;8.23;5.60;;;;;;;23.07;71.41;101070.94;2042464;28;20147;-72
2023/08/16 02:17:18;;;;;;;9.55;5.78;;;;;;;23.03;71.35;101075.53;2057287;28;20107;-72
2023/08/16 02:18:23;;;;;;;7.80;5.60;;;;;;;23.02;71.36;101066.53;2057448;28;20024;-72
2023/08/16 02:19:28;;;;;;;8.65;5.38;;;;;;;23.02;71.36;101065.72;2057458;28;20896;-72
2023/08/16 02:20:30;;;;;;;8.20;5.85;;;;;;;23.00;71.46;101068.03;2049752;28;20052;-72
2023/08/16 02:21:34;;;;;;;6.47;5.32;;;;;;;23.01;71.61;101058.63;2049999;28;20044;-73
2023/08/16 02:22:39;;;;;;;7.00;4.85;;;;;;;23.00;71.55;101054.31;2049832;28;20878;-73
2023/08/16 02:23:41;;;;;;;8.32;5.47;;;;;;;22.99;71.34;101063.69;2057868;28;20024;-71
2023/08/16 02:24:44;;;;;;;8.50;5.72;;;;;;;22.98;71.62;101062.91;2057465;28;20158;-72
2023/08/16 02:25:48;;;;;;;9.90;5.35;;;;;;;23.00;71.46;101060.59;2065212;28;20034;-72
2023/08/16 02:26:50;;;;;;;7.22;5.20;;;;;;;22.99;71.43;101064.47;2057043;28;20893;-71
2023/08/16 02:27:52;;;;;;;7.93;5.20;;;;;;;23.01;71.58;101067.66;2057400;28;20863;-71
2023/08/16 02:28:56;;;;;;;8.07;5.47;;;;;;;23.02;71.50;101068.47;2057372;28;20031;-71
2023/08/16 02:29:58;;;;;;;7.53;4.95;;;;;;;23.01;71.51;101072.34;2057226;28;20062;-71
2023/08/16 02:31:06;;;;;;;7.20;5.80;;;;;;;23.00;71.29;101077.03;2049759;28;20031;-71
2023/08/16 02:32:11;;;;;;;10.20;5.03;;;;;;;22.95;71.60;101087.44;2042872;28;20041;-71
2023/08/16 02:33:14;;;;;;;11.00;5.10;;;;;;;22.94;71.66;101088.59;2034210;28;20129;-71
2023/08/16 02:34:15;;;;;;;7.03;4.95;;;;;;;22.91;71.75;101090.88;2033751;28;20089;-71
2023/08/16 02:35:19;;;;;;;6.05;4.95;;;;;;;22.86;71.80;101085.66;2033786;28;20261;-70
2023/08/16 02:36:21;;;;;;;6.78;5.20;;;;;;;22.77;71.78;101093.22;2034369;28;20047;-70
2023/08/16 02:37:24;;;;;;;8.68;5.20;;;;;;;22.72;72.00;101098.94;2041787;28;20052;-70
2023/08/16 02:38:25;;;;;;;12.90;6.22;;;;;;;22.65;72.31;101088.56;2049426;28;20146;-70
2023/08/16 02:39:27;;;;;;;8.30;5.55;;;;;;;22.66;72.54;101089.34;2049377;28;20050;-70
2023/08/16 02:40:31;;;;;;;7.25;5.63;;;;;;;22.67;72.53;101096.47;2057043;28;20026;-70
2023/08/16 02:41:35;;;;;;;6.72;5.68;;;;;;;22.56;72.47;101089.84;2057321;28;20099;-70
2023/08/16 02:42:36;;;;;;;10.48;5.75;;;;;;;22.46;72.74;101082.13;2057365;28;20915;-70
2023/08/16 02:43:40;;;;;;;10.20;6.30;;;;;;;22.41;73.18;101088.63;2057271;28;20031;-70
2023/08/16 02:44:43;;;;;;;9.63;6.03;;;;;;;22.40;73.36;101090.56;2057330;28;20885;-70
2023/08/16 02:45:47;;;;;;;7.35;6.00;;;;;;;22.36;73.41;101092.41;2057583;28;20028;-70
2023/08/16 02:46:51;;;;;;;8.45;5.82;;;;;;;22.35;73.73;101096.31;2048999;28;20138;-70
2023/08/16 02:47:53;;;;;;;7.28;5.85;;;;;;;22.33;73.84;101100.53;2057494;28;20070;-70
2023/08/16 02:48:55;;;;;;;8.27;6.10;;;;;;;22.31;74.00;101100.88;2057209;28;20082;-70
2023/08/16 02:49:57;;;;;;;10.50;5.90;;;;;;;22.35;73.97;101090.00;2057517;28;21303;-70
2023/08/16 02:50:59;;;;;;;8.63;6.13;;;;;;;22.33;74.02;101086.84;2057271;28;20861;-70
2023/08/16 02:52:00;;;;;;;11.57;5.97;;;;;;;22.29;74.18;101083.16;2057468;28;20031;-70
2023/08/16 02:53:03;;;;;;;6.63;5.43;;;;;;;22.28;74.20;101082.38;2057571;28;20019;-70
2023/08/16 02:54:06;;;;;;;7.70;5.80;;;;;;;22.24;74.39;101083.41;2057393;28;20059;-70
2023/08/16 02:55:11;;;;;;;6.75;5.35;;;;;;;22.20;74.68;101078.63;2064873;28;20034;-70
2023/08/16 02:56:16;;;;;;;9.40;5.95;;;;;;;22.17;74.71;101076.59;2064350;28;20143;-71
2023/08/16 02:57:20;;;;;;;7.60;6.07;;;;;;;22.08;75.08;101078.63;2049868;28;20028;-71
2023/08/16 02:58:24;;;;;;;7.93;5.50;;;;;;;22.09;75.38;101082.16;2049607;28;20067;-70
2023/08/16 02:59:26;;;;;;;7.20;6.00;;;;;;;22.06;75.48;101091.03;2049278;28;20028;-71
2023/08/16 03:00:29;;;;;;;6.68;5.63;;;;;;;22.00;75.88;101090.47;2049538;28;20036;-70
2023/08/16 03:01:34;;;;;;;8.43;5.68;;;;;;;21.95;76.27;101085.25;2057162;28;20047;-71
2023/08/16 03:02:35;;;;;;;9.30;6.07;;;;;;;21.95;76.27;101083.31;2053689;28;20876;-71
2023/08/16 03:03:40;;;;;;;6.82;5.32;;;;;;;21.96;76.61;101084.09;2041268;28;20802;-71
2023/08/16 03:04:42;;;;;;;11.23;6.18;;;;;;;21.95;76.61;101072.34;2042399;28;21234;-70
2023/08/16 03:05:49;;;;;;;11.27;5.60;;;;;;;21.96;76.88;101084.88;2057920;28;20035;-71
2023/08/16 03:06:53;;;;;;;11.07;5.65;;;;;;;21.96;76.72;101082.16;2049171;28;20187;-70
2023/08/16 03:07:55;;;;;;;8.52;6.32;;;;;;;21.94;76.71;101080.88;2050022;28;20062;-70
2023/08/16 03:09:01;;;;;;;7.95;5.80;;;;;;;21.94;76.92;101086.38;2057038;28;20030;-71
2023/08/16 03:10:04;;;;;;;9.23;5.70;;;;;;;21.95;76.93;101086.03;2049348;28;20032;-70
2023/08/16 03:11:10;;;;;;;8.85;5.25;;;;;;;21.97;77.27;101096.63;2057692;28;20130;-70
2023/08/16 03:12:12;;;;;;;6.88;5.78;;;;;;;21.95;77.08;101094.25;2048842;28;20047;-70
2023/08/16 03:13:15;;;;;;;6.43;5.53;;;;;;;21.94;77.23;101091.84;2041603;28;20076;-70
2023/08/16 03:14:16;;;;;;;7.25;5.72;;;;;;;21.91;77.03;101087.88;2049424;28;20039;-70
2023/08/16 03:15:18;;;;;;;8.63;5.18;;;;;;;21.96;77.61;101087.63;2057255;28;20043;-70
2023/08/16 03:16:20;;;;;;;11.18;6.20;;;;;;;21.96;77.44;101093.09;2057206;28;20043;-70
2023/08/16 03:17:21;;;;;;;7.65;6.20;;;;;;;21.95;77.41;101088.78;2048894;28;20043;-70
2023/08/16 03:18:28;;;;;;;8.57;6.03;;;;;;;21.89;77.47;101084.66;2057722;28;20024;-70
2023/08/16 03:19:30;;;;;;;10.25;6.05;;;;;;;21.91;77.71;101093.34;2056289;28;20035;-70
2023/08/16 03:20:35;;;;;;;10.82;6.07;;;;;;;21.92;78.14;101094.94;2041892;28;20045;-70
2023/08/16 03:21:39;;;;;;;9.25;6.47;;;;;;;21.93;78.13;101101.22;2049609;28;20046;-70
2023/08/16 03:22:42;;;;;;;8.65;6.30;;;;;;;21.88;78.03;101088.56;2049947;28;20068;-70
2023/08/16 03:23:43;;;;;;;8.57;6.35;;;;;;;21.87;78.36;101092.41;2041116;28;20032;-70
2023/08/16 03:24:49;;;;;;;11.07;6.05;;;;;;;21.88;78.62;101094.03;2050376;28;20040;-70
2023/08/16 03:25:56;;;;;;;8.20;5.63;;;;;;;21.91;78.38;101104.31;2065517;28;20064;-70
2023/08/16 03:26:59;;;;;;;7.93;5.72;;;;;;;21.91;78.47;101107.03;2048290;28;20079;-70
2023/08/16 03:28:05;;;;;;;12.07;6.10;;;;;;;21.84;78.49;101097.78;2049505;28;20878;-70
2023/08/16 03:29:10;;;;;;;7.65;6.13;;;;;;;21.79;78.77;101096.09;2049366;28;20951;-70
2023/08/16 03:30:11;;;;;;;9.10;6.18;;;;;;;21.77;79.06;101097.56;2041826;28;20036;-70
2023/08/16 03:31:16;;;;;;;10.13;6.20;;;;;;;21.77;79.54;101095.59;2041314;28;20151;-70
2023/08/16 03:32:20;;;;;;;8.77;6.25;;;;;;;21.75;79.58;101092.41;2042003;28;20104;-70
2023/08/16 03:33:23;;;;;;;10.60;6.10;;;;;;;21.82;79.49;101095.41;2041272;28;20035;-70
2023/08/16 03:34:30;;;;;;;8.07;5.90;;;;;;;21.88;79.69;101093.22;2057598;28;20122;-70
2023/08/16 03:35:32;;;;;;;9.05;5.97;;;;;;;21.90;79.55;101097.22;2064940;28;20023;-70
2023/08/16 03:36:34;;;;;;;9.18;5.78;;;;;;;21.94;79.27;101095.41;2057447;28;20124;-70
2023/08/16 03:37:39;;;;;;;7.15;5.72;;;;;;;21.97;79.20;101096.63;2041069;28;20043;-70
2023/08/16 03:38:41;;;;;;;12.25;6.38;;;;;;;21.95;79.12;101099.72;2041998;28;21262;-70
2023/08/16 03:39:42;;;;;;;9.25;5.93;;;;;;;21.95;79.40;101098.94;2057275;28;20062;-70
2023/08/16 03:40:43;;;;;;;8.82;6.82;;;;;;;21.95;79.45;101098.94;2041087;28;20040;-70
2023/08/16 03:41:47;;;;;;;8.15;6.07;;;;;;;21.92;79.50;101094.94;2041454;28;20051;-70
2023/08/16 03:42:49;;;;;;;10.77;6.63;;;;;;;21.90;79.78;101099.94;2056912;28;20121;-70
2023/08/16 03:43:50;;;;;;;11.93;6.32;;;;;;;21.83;80.07;101101.66;2041136;28;20048;-70
2023/08/16 03:44:52;;;;;;;8.00;5.75;;;;;;;21.80;80.61;101100.41;2033645;28;20037;-70
2023/08/16 03:45:54;;;;;;;8.90;5.93;;;;;;;21.82;80.91;101098.13;2049359;28;20040;-70
2023/08/16 03:46:57;;;;;;;7.95;5.75;;;;;;;21.81;80.79;101099.25;2057060;28;20907;-70
2023/08/16 03:48:02;;;;;;;9.95;6.15;;;;;;;21.80;81.35;101094.13;2057344;28;20103;-70
2023/08/16 03:49:03;;;;;;;7.80;5.80;;;;;;;21.82;81.55;101089.91;2065193;28;20027;-70
2023/08/16 03:50:05;;;;;;;7.78;6.03;;;;;;;21.85;81.47;101091.19;2056963;28;20091;-70
2023/08/16 03:51:08;;;;;;;9.65;6.40;;;;;;;21.86;81.53;101096.31;2041235;28;20032;-70
2023/08/16 03:52:10;;;;;;;9.73;6.22;;;;;;;21.85;81.37;101096.66;2049451;28;21169;-70
2023/08/16 03:53:12;;;;;;;9.02;6.25;;;;;;;21.83;81.64;101096.19;2056932;28;20043;-71
2023/08/16 03:54:13;;;;;;;6.90;5.72;;;;;;;21.81;81.95;101102.00;2049300;28;20019;-71
2023/08/16 03:55:15;;;;;;;6.88;6.03;;;;;;;21.82;81.95;101097.34;2041378;28;20024;-70
2023/08/16 03:56:17;;;;;;;7.20;6.05;;;;;;;21.81;81.96;101103.94;2049083;28;20035;-71
2023/08/16 03:57:18;;;;;;;8.30;6.00;;;;;;;21.80;82.18;101102.34;2057465;28;20910;-71
2023/08/16 03:58:20;;;;;;;6.80;5.53;;;;;;;21.78;82.29;101104.63;2057084;28;20027;-70
2023/08/16 03:59:23;;;;;;;7.68;6.30;;;;;;;21.81;82.49;101102.00;2065460;28;20089;-70
2023/08/16 04:00:25;;;;;;;8.05;5.93;;;;;;;21.85;82.58;101100.19;2056878;28;20032;-70
2023/08/16 04:01:30;;;;;;;7.65;5.68;;;;;;;21.85;82.36;101100.19;2057399;28;20819;-70
2023/08/16 04:02:32;;;;;;;7.88;5.57;;;;;;;21.87;82.45;101097.09;2048936;28;20023;-71
2023/08/16 04:03:34;;;;;;;7.35;5.93;;;;;;;21.89;82.45;101101.09;2041488;28;20055;-70
2023/08/16 04:04:39;;;;;;;8.77;5.43;;;;;;;21.89;82.51;101097.56;2064296;28;20047;-70
2023/08/16 04:05:41;;;;;;;9.15;5.78;;;;;;;21.91;82.76;101101.56;2048927;28;20169;-70
2023/08/16 04:06:42;;;;;;;9.95;5.78;;;;;;;21.92;82.64;101100.41;2041151;28;20150;-70
2023/08/16 04:07:44;;;;;;;8.60;5.80;;;;;;;21.96;82.74;101106.78;2049322;28;20106;-70
2023/08/16 04:08:48;;;;;;;5.82;5.07;;;;;;;21.99;82.83;101100.63;2041485;28;20036;-70
2023/08/16 04:09:53;;;;;;;7.65;5.15;;;;;;;22.05;82.81;101109.41;2049818;28;20035;-71
2023/08/16 04:10:55;;;;;;;8.35;5.28;;;;;;;22.10;82.73;101103.72;2048972;28;20078;-71
2023/08/16 04:11:57;;;;;;;8.77;5.18;;;;;;;22.16;82.58;101101.56;2049338;28;20031;-70
2023/08/16 04:12:59;;;;;;;7.63;5.43;;;;;;;22.21;82.41;101098.59;2048871;28;20043;-71
2023/08/16 04:14:00;;;;;;;8.65;5.78;;;;;;;22.25;82.14;101104.19;2049225;28;20031;-71
2023/08/16 04:15:03;;;;;;;8.18;5.97;;;;;;;22.26;82.03;101092.91;2056565;28;20030;-71
2023/08/16 04:16:06;;;;;;;7.10;5.07;;;;;;;22.29;82.12;101103.16;2049383;28;20012;-71
2023/08/16 04:17:07;;;;;;;5.40;4.57;;;;;;;22.34;82.04;101099.38;2056974;28;20220;-71
2023/08/16 04:18:09;;;;;;;7.93;5.40;;;;;;;22.40;82.02;101106.22;2056912;28;20112;-71
2023/08/16 04:19:11;;;;;;;7.95;5.43;;;;;;;22.46;81.84;101101.31;2049030;28;20032;-71
2023/08/16 04:20:18;;;;;;;9.50;5.13;;;;;;;22.52;81.67;101099.91;2056268;28;20035;-71
2023/08/16 04:21:20;;;;;;;7.05;5.28;;;;;;;22.52;81.33;101099.91;2057009;28;20040;-71
2023/08/16 04:22:25;;;;;;;5.97;4.50;;;;;;;22.54;81.45;101103.91;2049625;28;20039;-70
2023/08/16 04:23:29;;;;;;;7.95;4.93;;;;;;;22.60;81.42;101101.72;2036719;28;20028;-70
2023/08/16 04:24:30;;;;;;;5.97;4.45;;;;;;;22.66;81.36;101094.84;2033694;28;20921;-71
2023/08/16 04:25:34;;;;;;;11.68;5.20;;;;;;;22.70;81.28;101101.25;2040888;28;20806;-71
2023/08/16 04:26:36;;;;;;;6.53;4.47;;;;;;;22.71;80.94;101102.03;2049338;28;20048;-71
2023/08/16 04:27:38;;;;;;;6.57;4.28;;;;;;;22.72;80.93;101093.47;2041146;28;20040;-71
2023/08/16 04:28:42;;;;;;;6.57;4.78;;;;;;;22.76;80.90;101099.84;2049305;28;20044;-70
2023/08/16 04:29:43;;;;;;;6.18;4.63;;;;;;;22.81;80.92;101096.84;2048710;28;20031;-70
2023/08/16 04:30:45;;;;;;;7.10;4.63;;;;;;;22.84;80.75;101098.91;2041062;28;20040;-70
2023/08/16 04:31:48;;;;;;;9.07;4.60;;;;;;;22.93;80.58;101106.19;2048993;28;20019;-70
2023/08/16 04:32:49;;;;;;;5.22;4.38;;;;;;;22.98;80.55;101106.78;2064858;28;20050;-70
2023/08/16 04:33:51;;;;;;;6.68;4.20;;;;;;;23.07;80.35;101110.13;2056973;28;20086;-70
2023/08/16 04:34:54;;;;;;;8.13;4.70;;;;;;;23.16;80.34;101110.00;2065023;28;21297;-70
2023/08/16 04:35:59;;;;;;;8.38;4.55;;;;;;;23.22;80.18;101111.31;2049038;28;20974;-70
2023/08/16 04:37:01;;;;;;;6.45;4.10;;;;;;;23.26;79.69;101117.69;2051075;28;20159;-70
2023/08/16 04:38:08;;;;;;;5.63;4.00;;;;;;;23.34;79.45;101118.72;2066132;28;20071;-73
2023/08/16 04:39:12;;;;;;;6.32;4.50;;;;;;;23.43;79.37;101118.56;2058242;28;20019;-72
2023/08/16 04:40:14;;;;;;;6.95;4.80;;;;;;;23.50;78.86;101115.97;2066151;28;20037;-72
2023/08/16 04:41:16;;;;;;;8.02;3.95;;;;;;;23.58;78.70;101117.75;2050145;28;20067;-72
2023/08/16 04:42:19;;;;;;;6.28;3.95;;;;;;;23.62;78.12;101121.41;2050757;28;20027;-73
2023/08/16 04:43:26;;;;;;;8.55;4.30;;;;;;;23.67;77.91;101118.38;2057941;28;20039;-71
2023/08/16 04:44:31;;;;;;;5.43;3.72;;;;;;;23.75;77.63;101116.66;2051182;28;20142;-70
2023/08/16 04:45:33;;;;;;;5.18;3.80;;;;;;;23.84;77.57;101124.72;2057917;28;20023;-71
2023/08/16 04:46:37;;;;;;;6.75;4.10;;;;;;;23.88;77.06;101120.09;2058540;28;20957;-70
2023/08/16 04:47:42;;;;;;;9.98;4.00;;;;;;;23.92;76.85;101120.97;2065324;28;20039;-70
2023/08/16 04:48:45;;;;;;;9.75;4.60;;;;;;;23.97;76.50;101117.97;2058077;28;20034;-71
2023/08/16 04:49:47;;;;;;;5.25;3.85;;;;;;;23.97;76.28;101123.47;2050157;28;21231;-71
2023/08/16 04:50:51;;;;;;;7.50;3.85;;;;;;;24.01;76.15;101121.59;2050785;28;20038;-71
2023/08/16 04:51:54;;;;;;;5.15;4.20;;;;;;;24.09;76.26;101125.31;2058037;28;20862;-73
2023/08/16 04:52:56;;;;;;;5.15;3.83;;;;;;;24.09;75.39;101120.63;2058038;28;20032;-73
2023/08/16 04:54:00;;;;;;;7.40;3.72;;;;;;;24.15;75.46;101124.69;2058816;28;20039;-76
2023/08/16 04:55:05;;;;;;;4.55;3.50;;;;;;;24.22;75.34;101124.84;2057737;28;20073;-73